createdAt,value
2019-01-09T00:00:04.368Z,11.265408
2019-01-09T00:00:16.770Z,16.09344
2019-01-09T00:00:29.130Z,20.921472
2019-01-09T00:00:41.487Z,25.749504
2019-01-09T00:00:53.999Z,32.18688
2019-01-09T00:01:06.353Z,16.09344
2019-01-09T00:01:18.738Z,19.312128
2019-01-09T00:01:31.103Z,19.312128
2019-01-09T00:01:43.488Z,19.312128
2019-01-09T00:01:55.851Z,19.312128
2019-01-09T00:02:08.315Z,20.921472
2019-01-09T00:02:20.661Z,20.921472
2019-01-09T00:02:33.027Z,20.921472
2019-01-09T00:02:45.383Z,20.921472
2019-01-09T00:02:57.999Z,20.921472
2019-01-09T00:03:10.523Z,17.702784
2019-01-09T00:03:22.966Z,17.702784
2019-01-09T00:03:35.317Z,25.749504
2019-01-09T00:03:47.759Z,25.749504
2019-01-09T00:04:00.265Z,25.749504
2019-01-09T00:04:12.608Z,16.09344
2019-01-09T00:04:25.111Z,19.312128
2019-01-09T00:04:37.464Z,19.312128
2019-01-09T00:04:49.909Z,19.312128
2019-01-09T00:05:02.264Z,19.312128
2019-01-09T00:05:14.750Z,24.14016
2019-01-09T00:05:35.160Z,25.749504
2019-01-09T00:05:47.512Z,25.749504
2019-01-09T00:06:00.082Z,25.749504
2019-01-09T00:06:12.465Z,19.312128
2019-01-09T00:06:24.907Z,19.312128
2019-01-09T00:06:37.269Z,19.312128
2019-01-09T00:06:49.632Z,19.312128
2019-01-09T00:07:01.979Z,19.312128
2019-01-09T00:07:14.449Z,20.921472
2019-01-09T00:07:26.906Z,24.14016
2019-01-09T00:07:39.313Z,25.749504
2019-01-09T00:07:51.658Z,25.749504
2019-01-09T00:08:04.079Z,14.484096
2019-01-09T00:08:16.438Z,20.921472
2019-01-09T00:08:30.390Z,20.921472
2019-01-09T00:08:42.902Z,20.921472
2019-01-09T00:08:55.342Z,20.921472
2019-01-09T00:09:07.851Z,20.921472
2019-01-09T00:09:20.232Z,32.18688
2019-01-09T00:09:32.601Z,32.18688
2019-01-09T00:09:44.981Z,32.18688
2019-01-09T00:09:57.357Z,32.18688
2019-01-09T00:10:09.705Z,14.484096
2019-01-09T00:10:22.238Z,19.312128
2019-01-09T00:10:34.599Z,19.312128
2019-01-09T00:10:47.216Z,19.312128
2019-01-09T00:10:59.578Z,19.312128
2019-01-09T00:11:11.960Z,22.530816
2019-01-09T00:11:24.329Z,25.749504
2019-01-09T00:11:36.917Z,25.749504
2019-01-09T00:11:49.373Z,25.749504
2019-01-09T00:12:01.727Z,25.749504
2019-01-09T00:12:14.096Z,20.921472
2019-01-09T00:12:26.446Z,20.921472
2019-01-09T00:12:38.859Z,20.921472
2019-01-09T00:12:51.369Z,20.921472
2019-01-09T00:13:03.757Z,12.874752
2019-01-09T00:13:16.113Z,12.874752
2019-01-09T00:13:28.512Z,12.874752
2019-01-09T00:13:40.957Z,12.874752
2019-01-09T00:13:53.324Z,12.874752
2019-01-09T00:14:05.671Z,8.04672
2019-01-09T00:14:18.056Z,12.874752
2019-01-09T00:14:30.412Z,17.702784
2019-01-09T00:14:42.762Z,17.702784
2019-01-09T00:14:55.194Z,19.312128
2019-01-09T00:15:09.009Z,11.265408
2019-01-09T00:15:21.372Z,14.484096
2019-01-09T00:15:33.732Z,14.484096
2019-01-09T00:15:46.099Z,16.09344
2019-01-09T00:15:58.461Z,16.09344
2019-01-09T00:16:10.822Z,8.04672
2019-01-09T00:16:23.183Z,28.968192
2019-01-09T00:16:35.536Z,28.968192
2019-01-09T00:16:47.879Z,28.968192
2019-01-09T00:17:00.223Z,28.968192
2019-01-09T00:17:12.842Z,20.921472
2019-01-09T00:17:25.204Z,22.530816
2019-01-09T00:17:37.553Z,22.530816
2019-01-09T00:17:49.927Z,22.530816
2019-01-09T00:18:02.361Z,22.530816
2019-01-09T00:18:14.706Z,24.14016
2019-01-09T00:18:27.063Z,24.14016
2019-01-09T00:18:39.703Z,25.749504
2019-01-09T00:18:52.068Z,25.749504
2019-01-09T00:19:04.440Z,20.921472
2019-01-09T00:19:16.790Z,28.968192
2019-01-09T00:19:29.185Z,28.968192
2019-01-09T00:19:41.535Z,28.968192
2019-01-09T00:19:53.901Z,28.968192
2019-01-09T00:20:06.288Z,17.702784
2019-01-09T00:20:18.740Z,25.749504
2019-01-09T00:20:31.079Z,25.749504
2019-01-09T00:20:43.430Z,25.749504
2019-01-09T00:20:55.788Z,25.749504
2019-01-09T00:21:08.150Z,25.749504
2019-01-09T00:21:20.499Z,25.749504
2019-01-09T00:21:32.878Z,25.749504
2019-01-09T00:21:45.235Z,25.749504
2019-01-09T00:21:57.592Z,25.749504
2019-01-09T00:22:09.933Z,17.702784
2019-01-09T00:22:22.380Z,17.702784
2019-01-09T00:22:34.734Z,20.921472
2019-01-09T00:22:47.091Z,25.749504
2019-01-09T00:22:59.437Z,25.749504
2019-01-09T00:23:11.835Z,22.530816
2019-01-09T00:23:24.202Z,22.530816
2019-01-09T00:23:36.556Z,22.530816
2019-01-09T00:23:48.930Z,22.530816
2019-01-09T00:24:01.273Z,22.530816
2019-01-09T00:24:13.642Z,17.702784
2019-01-09T00:24:25.998Z,24.14016
2019-01-09T00:24:38.360Z,24.14016
2019-01-09T00:24:50.720Z,24.14016
2019-01-09T00:25:03.096Z,24.14016
2019-01-09T00:25:15.547Z,16.09344
2019-01-09T00:25:27.917Z,19.312128
2019-01-09T00:25:40.310Z,19.312128
2019-01-09T00:25:52.651Z,19.312128
2019-01-09T00:26:05.041Z,14.484096
2019-01-09T00:26:17.398Z,14.484096
2019-01-09T00:26:29.974Z,14.484096
2019-01-09T00:26:42.331Z,17.702784
2019-01-09T00:26:56.897Z,17.702784
2019-01-09T00:27:09.279Z,14.484096
2019-01-09T00:27:21.735Z,14.484096
2019-01-09T00:27:34.326Z,14.484096
2019-01-09T00:27:46.679Z,19.312128
2019-01-09T00:27:59.055Z,20.921472
2019-01-09T00:28:11.445Z,20.921472
2019-01-09T00:28:23.813Z,20.921472
2019-01-09T00:28:36.223Z,20.921472
2019-01-09T00:28:48.601Z,20.921472
2019-01-09T00:29:00.947Z,20.921472
2019-01-09T00:29:13.287Z,12.874752
2019-01-09T00:29:25.664Z,20.921472
2019-01-09T00:29:38.015Z,20.921472
2019-01-09T00:29:50.386Z,20.921472
2019-01-09T00:30:02.749Z,20.921472
2019-01-09T00:30:15.172Z,28.968192
2019-01-09T00:30:27.547Z,28.968192
2019-01-09T00:30:39.910Z,28.968192
2019-01-09T00:30:52.259Z,28.968192
2019-01-09T00:31:04.650Z,22.530816
2019-01-09T00:31:17.024Z,24.14016
2019-01-09T00:31:29.363Z,30.577536
2019-01-09T00:31:41.724Z,30.577536
2019-01-09T00:31:54.086Z,30.577536
2019-01-09T00:32:06.452Z,17.702784
2019-01-09T00:32:18.915Z,19.312128
2019-01-09T00:32:31.281Z,19.312128
2019-01-09T00:32:43.878Z,19.312128
2019-01-09T00:32:56.241Z,19.312128
2019-01-09T00:33:08.595Z,8.04672
2019-01-09T00:33:20.970Z,8.04672
2019-01-09T00:33:33.342Z,9.656064
2019-01-09T00:33:45.699Z,9.656064
2019-01-09T00:33:58.048Z,16.09344
2019-01-09T00:34:10.417Z,19.312128
2019-01-09T00:34:22.772Z,19.312128
2019-01-09T00:34:35.132Z,19.312128
2019-01-09T00:34:47.490Z,22.530816
2019-01-09T00:34:59.848Z,22.530816
2019-01-09T00:35:12.283Z,14.484096
2019-01-09T00:35:24.641Z,22.530816
2019-01-09T00:35:45.053Z,24.14016
2019-01-09T00:35:57.396Z,25.749504
2019-01-09T00:36:09.752Z,30.577536
2019-01-09T00:36:22.226Z,30.577536
2019-01-09T00:36:35.008Z,30.577536
2019-01-09T00:36:47.364Z,30.577536
2019-01-09T00:36:59.714Z,30.577536
2019-01-09T00:37:12.062Z,22.530816
2019-01-09T00:37:24.667Z,22.530816
2019-01-09T00:37:37.019Z,22.530816
2019-01-09T00:37:49.441Z,22.530816
2019-01-09T00:38:01.808Z,22.530816
2019-01-09T00:38:14.151Z,19.312128
2019-01-09T00:38:26.517Z,22.530816
2019-01-09T00:38:40.525Z,22.530816
2019-01-09T00:38:53.187Z,22.530816
2019-01-09T00:39:05.544Z,14.484096
2019-01-09T00:39:17.903Z,19.312128
2019-01-09T00:39:30.265Z,19.312128
2019-01-09T00:39:42.675Z,19.312128
2019-01-09T00:39:55.038Z,22.530816
2019-01-09T00:40:07.381Z,22.530816
2019-01-09T00:40:20.132Z,24.14016
2019-01-09T00:40:32.580Z,40.2336
2019-01-09T00:40:44.970Z,40.2336
2019-01-09T00:40:57.438Z,40.2336
2019-01-09T00:41:09.885Z,22.530816
2019-01-09T00:41:22.367Z,22.530816
2019-01-09T00:41:34.878Z,22.530816
2019-01-09T00:41:47.227Z,22.530816
2019-01-09T00:41:59.569Z,22.530816
2019-01-09T00:42:11.928Z,14.484096
2019-01-09T00:42:24.272Z,20.921472
2019-01-09T00:42:36.626Z,24.14016
2019-01-09T00:42:49.010Z,24.14016
2019-01-09T00:43:01.367Z,24.14016
2019-01-09T00:43:13.723Z,9.656064
2019-01-09T00:43:26.078Z,17.702784
2019-01-09T00:43:38.496Z,17.702784
2019-01-09T00:43:50.889Z,17.702784
2019-01-09T00:44:03.264Z,16.09344
2019-01-09T00:44:15.712Z,16.09344
2019-01-09T00:44:28.278Z,17.702784
2019-01-09T00:44:40.744Z,20.921472
2019-01-09T00:44:53.172Z,20.921472
2019-01-09T00:45:05.533Z,14.484096
2019-01-09T00:45:17.886Z,14.484096
2019-01-09T00:45:30.357Z,14.484096
2019-01-09T00:45:42.784Z,16.09344
2019-01-09T00:45:55.142Z,16.09344
2019-01-09T00:46:07.570Z,12.874752
2019-01-09T00:46:19.939Z,17.702784
2019-01-09T00:46:32.631Z,17.702784
2019-01-09T00:46:44.988Z,20.921472
2019-01-09T00:46:57.338Z,20.921472
2019-01-09T00:47:09.673Z,12.874752
2019-01-09T00:47:22.258Z,20.921472
2019-01-09T00:47:34.695Z,20.921472
2019-01-09T00:47:47.341Z,25.749504
2019-01-09T00:47:59.692Z,25.749504
2019-01-09T00:48:12.066Z,22.530816
2019-01-09T00:48:24.492Z,24.14016
2019-01-09T00:48:36.850Z,24.14016
2019-01-09T00:48:49.213Z,25.749504
2019-01-09T00:49:01.577Z,25.749504
2019-01-09T00:49:13.973Z,19.312128
2019-01-09T00:49:26.334Z,19.312128
2019-01-09T00:49:38.692Z,19.312128
2019-01-09T00:49:51.060Z,19.312128
2019-01-09T00:50:03.455Z,11.265408
2019-01-09T00:50:15.933Z,24.14016
2019-01-09T00:50:28.378Z,30.577536
2019-01-09T00:50:40.747Z,30.577536
2019-01-09T00:50:58.143Z,30.577536
2019-01-09T00:51:10.505Z,12.874752
2019-01-09T00:51:22.880Z,12.874752
2019-01-09T00:51:35.286Z,12.874752
2019-01-09T00:51:47.635Z,12.874752
2019-01-09T00:51:59.974Z,12.874752
2019-01-09T00:52:12.308Z,9.656064
2019-01-09T00:52:24.665Z,16.09344
2019-01-09T00:52:37.010Z,16.09344
2019-01-09T00:52:49.635Z,16.09344
2019-01-09T00:53:02.131Z,16.09344
2019-01-09T00:53:14.491Z,14.484096
2019-01-09T00:53:26.882Z,14.484096
2019-01-09T00:53:39.242Z,14.484096
2019-01-09T00:53:51.581Z,20.921472
2019-01-09T00:54:03.948Z,24.14016
2019-01-09T00:54:16.304Z,24.14016
2019-01-09T00:54:28.650Z,24.14016
2019-01-09T00:54:41.020Z,25.749504
2019-01-09T00:54:53.376Z,25.749504
2019-01-09T00:55:05.830Z,14.484096
2019-01-09T00:55:18.168Z,19.312128
2019-01-09T00:55:30.531Z,19.312128
2019-01-09T00:55:42.997Z,20.921472
2019-01-09T00:55:55.343Z,28.968192
2019-01-09T00:56:07.705Z,19.312128
2019-01-09T00:56:20.084Z,19.312128
2019-01-09T00:56:32.483Z,19.312128
2019-01-09T00:56:44.823Z,30.577536
2019-01-09T00:56:57.171Z,32.18688
2019-01-09T00:57:09.522Z,14.484096
2019-01-09T00:57:21.878Z,19.312128
2019-01-09T00:57:34.448Z,19.312128
2019-01-09T00:57:46.798Z,19.312128
2019-01-09T00:57:59.179Z,19.312128
2019-01-09T00:58:11.588Z,16.09344
2019-01-09T00:58:23.939Z,16.09344
2019-01-09T00:58:36.306Z,16.09344
2019-01-09T00:58:48.659Z,16.09344
2019-01-09T00:59:01.020Z,22.530816
2019-01-09T00:59:13.376Z,20.921472
2019-01-09T00:59:26.343Z,20.921472
2019-01-09T00:59:38.693Z,20.921472
2019-01-09T00:59:51.052Z,30.577536
2019-01-09T01:00:03.442Z,12.874752
2019-01-09T01:00:15.908Z,19.312128
2019-01-09T01:00:28.302Z,19.312128
2019-01-09T01:00:40.673Z,19.312128
2019-01-09T01:00:53.025Z,22.530816
2019-01-09T01:01:05.412Z,20.921472
2019-01-09T01:01:17.770Z,20.921472
2019-01-09T01:01:30.273Z,20.921472
2019-01-09T01:01:42.625Z,20.921472
2019-01-09T01:01:54.986Z,20.921472
2019-01-09T01:02:07.350Z,9.656064
2019-01-09T01:02:19.702Z,14.484096
2019-01-09T01:02:32.045Z,14.484096
2019-01-09T01:02:44.399Z,14.484096
2019-01-09T01:02:56.751Z,14.484096
2019-01-09T01:03:09.183Z,11.265408
2019-01-09T01:03:21.544Z,22.530816
2019-01-09T01:03:33.878Z,25.749504
2019-01-09T01:03:48.327Z,25.749504
2019-01-09T01:04:00.820Z,25.749504
2019-01-09T01:04:13.297Z,35.405568
2019-01-09T01:04:25.653Z,35.405568
2019-01-09T01:04:38.109Z,35.405568
2019-01-09T01:04:50.625Z,35.405568
2019-01-09T01:05:02.973Z,35.405568
2019-01-09T01:05:15.473Z,25.749504
2019-01-09T01:05:27.849Z,25.749504
2019-01-09T01:05:48.215Z,25.749504
2019-01-09T01:06:00.583Z,25.749504
2019-01-09T01:06:12.937Z,19.312128
2019-01-09T01:06:25.374Z,19.312128
2019-01-09T01:06:37.727Z,19.312128
2019-01-09T01:06:50.089Z,19.312128
2019-01-09T01:07:02.444Z,19.312128
2019-01-09T01:07:14.794Z,12.874752
2019-01-09T01:07:27.239Z,12.874752
2019-01-09T01:07:39.692Z,19.312128
2019-01-09T01:07:52.062Z,19.312128
2019-01-09T01:08:04.431Z,17.702784
2019-01-09T01:08:16.788Z,28.968192
2019-01-09T01:08:29.133Z,28.968192
2019-01-09T01:08:41.483Z,30.577536
2019-01-09T01:08:53.850Z,30.577536
2019-01-09T01:09:06.446Z,16.09344
2019-01-09T01:09:18.894Z,20.921472
2019-01-09T01:09:31.268Z,20.921472
2019-01-09T01:09:43.641Z,20.921472
2019-01-09T01:09:55.979Z,33.796224
2019-01-09T01:10:08.453Z,22.530816
2019-01-09T01:10:20.798Z,22.530816
2019-01-09T01:10:33.284Z,22.530816
2019-01-09T01:10:45.784Z,22.530816
2019-01-09T01:10:58.221Z,22.530816
2019-01-09T01:11:10.620Z,19.312128
2019-01-09T01:11:22.960Z,19.312128
2019-01-09T01:11:35.303Z,19.312128
2019-01-09T01:11:47.647Z,19.312128
2019-01-09T01:11:59.986Z,20.921472
2019-01-09T01:12:12.339Z,19.312128
2019-01-09T01:12:24.720Z,19.312128
2019-01-09T01:12:37.156Z,19.312128
2019-01-09T01:12:49.600Z,19.312128
2019-01-09T01:13:02.033Z,19.312128
2019-01-09T01:13:14.482Z,24.14016
2019-01-09T01:13:26.936Z,24.14016
2019-01-09T01:13:39.312Z,24.14016
2019-01-09T01:13:51.662Z,24.14016
2019-01-09T01:14:04.045Z,12.874752
2019-01-09T01:14:16.406Z,12.874752
2019-01-09T01:14:28.837Z,24.14016
2019-01-09T01:14:41.266Z,24.14016
2019-01-09T01:14:53.609Z,24.14016
2019-01-09T01:15:05.953Z,22.530816
2019-01-09T01:15:18.299Z,25.749504
2019-01-09T01:15:30.638Z,25.749504
2019-01-09T01:15:42.987Z,30.577536
2019-01-09T01:15:55.337Z,32.18688
2019-01-09T01:16:07.684Z,22.530816
2019-01-09T01:16:20.110Z,22.530816
2019-01-09T01:16:32.467Z,30.577536
2019-01-09T01:16:44.825Z,30.577536
2019-01-09T01:16:57.194Z,30.577536
2019-01-09T01:17:09.589Z,24.14016
2019-01-09T01:17:21.927Z,24.14016
2019-01-09T01:17:34.266Z,24.14016
2019-01-09T01:17:46.616Z,24.14016
2019-01-09T01:17:58.963Z,24.14016
2019-01-09T01:18:11.331Z,19.312128
2019-01-09T01:18:23.722Z,19.312128
2019-01-09T01:18:36.214Z,33.796224
2019-01-09T01:18:48.577Z,37.014912
2019-01-09T01:19:00.946Z,37.014912
2019-01-09T01:19:13.304Z,20.921472
2019-01-09T01:19:25.668Z,30.577536
2019-01-09T01:19:38.042Z,30.577536
2019-01-09T01:19:50.480Z,30.577536
2019-01-09T01:20:02.834Z,30.577536
2019-01-09T01:20:15.350Z,24.14016
2019-01-09T01:20:27.706Z,24.14016
2019-01-09T01:20:40.208Z,24.14016
2019-01-09T01:20:52.677Z,24.14016
2019-01-09T01:21:05.028Z,16.09344
2019-01-09T01:21:17.374Z,17.702784
2019-01-09T01:21:29.781Z,20.921472
2019-01-09T01:21:42.129Z,20.921472
2019-01-09T01:21:54.479Z,20.921472
2019-01-09T01:22:06.827Z,22.530816
2019-01-09T01:22:19.252Z,22.530816
2019-01-09T01:22:31.616Z,22.530816
2019-01-09T01:22:43.965Z,22.530816
2019-01-09T01:22:56.336Z,24.14016
2019-01-09T01:23:08.915Z,22.530816
2019-01-09T01:23:21.257Z,22.530816
2019-01-09T01:23:33.611Z,24.14016
2019-01-09T01:23:46.022Z,24.14016
2019-01-09T01:23:58.387Z,24.14016
2019-01-09T01:24:10.749Z,22.530816
2019-01-09T01:24:23.107Z,24.14016
2019-01-09T01:24:35.470Z,24.14016
2019-01-09T01:24:47.908Z,24.14016
2019-01-09T01:25:00.355Z,24.14016
2019-01-09T01:25:12.762Z,20.921472
2019-01-09T01:25:25.185Z,20.921472
2019-01-09T01:25:37.539Z,20.921472
2019-01-09T01:25:49.902Z,22.530816
2019-01-09T01:26:02.270Z,25.749504
2019-01-09T01:26:14.626Z,16.09344
2019-01-09T01:26:27.062Z,30.577536
2019-01-09T01:26:39.455Z,30.577536
2019-01-09T01:26:51.798Z,30.577536
2019-01-09T01:27:04.170Z,11.265408
2019-01-09T01:27:16.513Z,11.265408
2019-01-09T01:27:29.032Z,11.265408
2019-01-09T01:27:41.379Z,14.484096
2019-01-09T01:27:53.757Z,17.702784
2019-01-09T01:28:06.148Z,16.09344
2019-01-09T01:28:18.502Z,19.312128
2019-01-09T01:28:32.101Z,22.530816
2019-01-09T01:28:44.457Z,33.796224
2019-01-09T01:28:56.876Z,33.796224
2019-01-09T01:29:09.227Z,30.577536
2019-01-09T01:29:21.590Z,32.18688
2019-01-09T01:29:33.958Z,32.18688
2019-01-09T01:29:46.308Z,32.18688
2019-01-09T01:29:58.662Z,32.18688
2019-01-09T01:30:11.019Z,24.14016
2019-01-09T01:30:23.377Z,24.14016
2019-01-09T01:30:35.714Z,28.968192
2019-01-09T01:30:48.058Z,28.968192
2019-01-09T01:31:00.402Z,28.968192
2019-01-09T01:31:12.846Z,17.702784
2019-01-09T01:31:25.289Z,20.921472
2019-01-09T01:31:37.637Z,25.749504
2019-01-09T01:31:50.062Z,25.749504
2019-01-09T01:32:02.423Z,25.749504
2019-01-09T01:32:14.773Z,20.921472
2019-01-09T01:32:27.270Z,28.968192
2019-01-09T01:32:39.640Z,28.968192
2019-01-09T01:32:52.271Z,28.968192
2019-01-09T01:33:04.635Z,14.484096
2019-01-09T01:33:16.992Z,14.484096
2019-01-09T01:33:29.418Z,17.702784
2019-01-09T01:33:41.787Z,20.921472
2019-01-09T01:33:54.145Z,20.921472
2019-01-09T01:34:06.487Z,20.921472
2019-01-09T01:34:18.867Z,25.749504
2019-01-09T01:34:31.318Z,25.749504
2019-01-09T01:34:43.673Z,25.749504
2019-01-09T01:34:56.030Z,25.749504
2019-01-09T01:35:08.402Z,22.530816
2019-01-09T01:35:20.762Z,22.530816
2019-01-09T01:35:33.140Z,30.577536
2019-01-09T01:35:45.504Z,30.577536
2019-01-09T01:36:05.896Z,14.484096
2019-01-09T01:36:18.241Z,19.312128
2019-01-09T01:36:30.737Z,20.921472
2019-01-09T01:36:43.087Z,20.921472
2019-01-09T01:36:55.462Z,20.921472
2019-01-09T01:37:07.839Z,9.656064
2019-01-09T01:37:20.331Z,20.921472
2019-01-09T01:37:32.675Z,20.921472
2019-01-09T01:37:45.027Z,20.921472
2019-01-09T01:37:57.465Z,20.921472
2019-01-09T01:38:09.830Z,20.921472
2019-01-09T01:38:22.201Z,20.921472
2019-01-09T01:38:34.562Z,20.921472
2019-01-09T01:38:46.911Z,20.921472
2019-01-09T01:38:59.441Z,20.921472
2019-01-09T01:39:11.802Z,12.874752
2019-01-09T01:39:24.224Z,16.09344
2019-01-09T01:39:36.584Z,16.09344
2019-01-09T01:39:48.938Z,16.09344
2019-01-09T01:40:01.304Z,16.09344
2019-01-09T01:40:13.663Z,19.312128
2019-01-09T01:40:26.178Z,25.749504
2019-01-09T01:40:38.727Z,25.749504
2019-01-09T01:40:51.076Z,25.749504
2019-01-09T01:41:03.440Z,22.530816
2019-01-09T01:41:15.997Z,22.530816
2019-01-09T01:41:28.477Z,22.530816
2019-01-09T01:41:40.844Z,22.530816
2019-01-09T01:41:53.405Z,22.530816
2019-01-09T01:42:05.766Z,20.921472
2019-01-09T01:42:18.117Z,25.749504
2019-01-09T01:42:30.474Z,25.749504
2019-01-09T01:42:44.668Z,25.749504
2019-01-09T01:42:57.059Z,25.749504
2019-01-09T01:43:09.430Z,16.09344
2019-01-09T01:43:21.802Z,16.09344
2019-01-09T01:43:34.144Z,16.09344
2019-01-09T01:43:46.498Z,20.921472
2019-01-09T01:43:58.845Z,24.14016
2019-01-09T01:44:11.341Z,24.14016
2019-01-09T01:44:23.706Z,24.14016
2019-01-09T01:44:36.163Z,24.14016
2019-01-09T01:44:48.549Z,24.14016
2019-01-09T01:45:00.920Z,24.14016
2019-01-09T01:45:13.351Z,25.749504
2019-01-09T01:45:25.715Z,25.749504
2019-01-09T01:45:38.150Z,25.749504
2019-01-09T01:45:50.581Z,25.749504
2019-01-09T01:46:02.935Z,25.749504
2019-01-09T01:46:15.290Z,19.312128
2019-01-09T01:46:27.645Z,19.312128
2019-01-09T01:46:40.012Z,20.921472
2019-01-09T01:46:52.359Z,22.530816
2019-01-09T01:47:04.720Z,11.265408
2019-01-09T01:47:17.069Z,22.530816
2019-01-09T01:47:29.606Z,22.530816
2019-01-09T01:47:42.118Z,22.530816
2019-01-09T01:47:54.460Z,22.530816
2019-01-09T01:48:06.819Z,20.921472
2019-01-09T01:48:19.193Z,25.749504
2019-01-09T01:48:31.541Z,25.749504
2019-01-09T01:48:43.904Z,25.749504
2019-01-09T01:48:56.258Z,25.749504
2019-01-09T01:49:08.646Z,11.265408
2019-01-09T01:49:21.018Z,30.577536
2019-01-09T01:49:33.453Z,30.577536
2019-01-09T01:49:45.810Z,30.577536
2019-01-09T01:49:58.263Z,30.577536
2019-01-09T01:50:10.718Z,17.702784
2019-01-09T01:50:23.258Z,20.921472
2019-01-09T01:50:35.698Z,20.921472
2019-01-09T01:50:48.039Z,20.921472
2019-01-09T01:51:00.383Z,20.921472
2019-01-09T01:51:12.775Z,9.656064
2019-01-09T01:51:25.127Z,22.530816
2019-01-09T01:51:38.035Z,22.530816
2019-01-09T01:51:50.385Z,28.968192
2019-01-09T01:52:02.940Z,30.577536
2019-01-09T01:52:15.289Z,28.968192
2019-01-09T01:52:27.696Z,28.968192
2019-01-09T01:52:40.121Z,28.968192
2019-01-09T01:52:52.451Z,28.968192
2019-01-09T01:53:05.155Z,16.09344
2019-01-09T01:53:17.521Z,16.09344
2019-01-09T01:53:29.870Z,16.09344
2019-01-09T01:53:42.227Z,17.702784
2019-01-09T01:53:54.696Z,24.14016
2019-01-09T01:54:07.076Z,22.530816
2019-01-09T01:54:19.427Z,22.530816
2019-01-09T01:54:31.794Z,22.530816
2019-01-09T01:54:44.173Z,22.530816
2019-01-09T01:54:56.537Z,22.530816
2019-01-09T01:55:08.901Z,20.921472
2019-01-09T01:55:21.256Z,24.14016
2019-01-09T01:55:33.682Z,24.14016
2019-01-09T01:55:46.198Z,24.14016
2019-01-09T01:55:58.541Z,32.18688
2019-01-09T01:56:10.975Z,35.405568
2019-01-09T01:56:23.320Z,35.405568
2019-01-09T01:56:35.670Z,35.405568
2019-01-09T01:56:48.024Z,35.405568
2019-01-09T01:57:00.393Z,35.405568
2019-01-09T01:57:12.757Z,24.14016
2019-01-09T01:57:25.313Z,24.14016
2019-01-09T01:57:37.665Z,24.14016
2019-01-09T01:57:50.017Z,24.14016
2019-01-09T01:58:02.403Z,24.14016
2019-01-09T01:58:14.841Z,24.14016
2019-01-09T01:58:27.189Z,24.14016
2019-01-09T01:58:39.538Z,24.14016
2019-01-09T01:58:51.908Z,24.14016
2019-01-09T01:59:04.288Z,14.484096
2019-01-09T01:59:16.652Z,20.921472
2019-01-09T01:59:29.002Z,20.921472
2019-01-09T01:59:41.365Z,20.921472
2019-01-09T01:59:53.711Z,20.921472
2019-01-09T02:00:06.056Z,17.702784
2019-01-09T02:00:18.443Z,30.577536
2019-01-09T02:00:30.823Z,30.577536
2019-01-09T02:00:43.196Z,30.577536
2019-01-09T02:00:55.573Z,30.577536
2019-01-09T02:01:07.941Z,25.749504
2019-01-09T02:01:20.287Z,25.749504
2019-01-09T02:01:32.640Z,25.749504
2019-01-09T02:01:45.005Z,25.749504
2019-01-09T02:01:57.367Z,25.749504
2019-01-09T02:02:09.846Z,14.484096
2019-01-09T02:02:23.605Z,14.484096
2019-01-09T02:02:36.004Z,19.312128
2019-01-09T02:02:48.367Z,19.312128
2019-01-09T02:03:00.719Z,19.312128
2019-01-09T02:03:13.337Z,16.09344
2019-01-09T02:03:25.699Z,16.09344
2019-01-09T02:03:38.078Z,16.09344
2019-01-09T02:03:50.528Z,16.09344
2019-01-09T02:04:02.890Z,16.09344
2019-01-09T02:04:15.261Z,9.656064
2019-01-09T02:04:27.623Z,9.656064
2019-01-09T02:04:39.976Z,12.874752
2019-01-09T02:04:52.453Z,12.874752
2019-01-09T02:05:04.819Z,9.656064
2019-01-09T02:05:17.313Z,17.702784
2019-01-09T02:05:29.690Z,25.749504
2019-01-09T02:05:42.088Z,25.749504
2019-01-09T02:06:03.392Z,25.749504
2019-01-09T02:06:15.984Z,25.749504
2019-01-09T02:06:28.339Z,25.749504
2019-01-09T02:06:40.806Z,25.749504
2019-01-09T02:06:53.142Z,25.749504
2019-01-09T02:07:05.493Z,17.702784
2019-01-09T02:07:17.858Z,17.702784
2019-01-09T02:07:30.211Z,17.702784
2019-01-09T02:07:42.562Z,17.702784
2019-01-09T02:07:54.916Z,22.530816
2019-01-09T02:08:07.280Z,38.624256
2019-01-09T02:08:19.627Z,38.624256
2019-01-09T02:08:31.998Z,38.624256
2019-01-09T02:08:44.363Z,38.624256
2019-01-09T02:08:56.712Z,38.624256
2019-01-09T02:09:09.460Z,24.14016
2019-01-09T02:09:21.905Z,24.14016
2019-01-09T02:09:34.285Z,24.14016
2019-01-09T02:09:46.663Z,24.14016
2019-01-09T02:09:59.030Z,24.14016
2019-01-09T02:10:11.412Z,8.04672
2019-01-09T02:10:23.765Z,8.04672
2019-01-09T02:10:36.269Z,14.484096
2019-01-09T02:10:48.652Z,16.09344
2019-01-09T02:11:00.990Z,16.09344
2019-01-09T02:11:15.451Z,14.484096
2019-01-09T02:11:27.866Z,17.702784
2019-01-09T02:11:40.245Z,17.702784
2019-01-09T02:11:52.598Z,17.702784
2019-01-09T02:12:04.962Z,8.04672
2019-01-09T02:12:17.333Z,12.874752
2019-01-09T02:12:29.687Z,12.874752
2019-01-09T02:12:42.059Z,25.749504
2019-01-09T02:12:54.414Z,33.796224
2019-01-09T02:13:06.937Z,28.968192
2019-01-09T02:13:19.372Z,28.968192
2019-01-09T02:13:31.726Z,28.968192
2019-01-09T02:13:44.084Z,28.968192
2019-01-09T02:13:56.441Z,28.968192
2019-01-09T02:14:08.799Z,9.656064
2019-01-09T02:14:21.168Z,11.265408
2019-01-09T02:14:33.515Z,12.874752
2019-01-09T02:14:45.871Z,12.874752
2019-01-09T02:14:58.227Z,12.874752
2019-01-09T02:15:10.573Z,11.265408
2019-01-09T02:15:22.942Z,14.484096
2019-01-09T02:15:35.308Z,20.921472
2019-01-09T02:15:47.667Z,20.921472
2019-01-09T02:16:00.024Z,20.921472
2019-01-09T02:16:12.376Z,20.921472
2019-01-09T02:16:24.729Z,20.921472
2019-01-09T02:16:37.091Z,20.921472
2019-01-09T02:16:49.445Z,20.921472
2019-01-09T02:17:01.807Z,20.921472
2019-01-09T02:17:14.240Z,16.09344
2019-01-09T02:17:26.616Z,16.09344
2019-01-09T02:17:39.042Z,16.09344
2019-01-09T02:17:51.471Z,32.18688
2019-01-09T02:18:03.883Z,32.18688
2019-01-09T02:18:16.221Z,32.18688
2019-01-09T02:18:28.594Z,32.18688
2019-01-09T02:18:42.256Z,32.18688
2019-01-09T02:18:54.717Z,32.18688
2019-01-09T02:19:07.066Z,16.09344
2019-01-09T02:19:19.428Z,25.749504
2019-01-09T02:19:31.816Z,25.749504
2019-01-09T02:19:44.182Z,25.749504
2019-01-09T02:19:56.529Z,25.749504
2019-01-09T02:20:08.909Z,11.265408
2019-01-09T02:20:21.276Z,17.702784
2019-01-09T02:20:33.630Z,17.702784
2019-01-09T02:20:45.976Z,19.312128
2019-01-09T02:20:58.335Z,19.312128
2019-01-09T02:21:10.751Z,14.484096
2019-01-09T02:21:23.107Z,19.312128
2019-01-09T02:21:35.510Z,19.312128
2019-01-09T02:21:47.862Z,19.312128
2019-01-09T02:22:00.869Z,19.312128
2019-01-09T02:22:13.240Z,17.702784
2019-01-09T02:22:25.606Z,17.702784
2019-01-09T02:22:37.964Z,17.702784
2019-01-09T02:22:50.323Z,22.530816
2019-01-09T02:23:02.668Z,22.530816
2019-01-09T02:23:15.122Z,16.09344